sensor_id;sensor_type;location;lat;lon;timestamp;P1;durP1;ratioP1;P2;durP2;ratioP2
4748;SDS011;2388;53.582;9.962;2023-09-08T00:01:48;5.03;;;4.53;;
4748;SDS011;2388;53.582;9.962;2023-09-08T00:04:14;4.10;;;3.80;;
4748;SDS011;2388;53.582;9.962;2023-09-08T00:06:40;4.50;;;4.20;;
4748;SDS011;2388;53.582;9.962;2023-09-08T00:09:06;4.70;;;4.13;;
4748;SDS011;2388;53.582;9.962;2023-09-08T00:11:32;5.93;;;4.37;;
4748;SDS011;2388;53.582;9.962;2023-09-08T00:13:57;5.57;;;4.87;;
4748;SDS011;2388;53.582;9.962;2023-09-08T00:16:23;4.37;;;4.07;;
4748;SDS011;2388;53.582;9.962;2023-09-08T00:18:49;5.40;;;4.90;;
4748;SDS011;2388;53.582;9.962;2023-09-08T00:21:15;4.37;;;4.07;;
4748;SDS011;2388;53.582;9.962;2023-09-08T00:23:40;5.07;;;4.63;;
4748;SDS011;2388;53.582;9.962;2023-09-08T00:26:06;5.37;;;4.57;;
4748;SDS011;2388;53.582;9.962;2023-09-08T00:28:31;4.40;;;4.07;;
4748;SDS011;2388;53.582;9.962;2023-09-08T00:30:57;4.63;;;4.23;;
4748;SDS011;2388;53.582;9.962;2023-09-08T00:33:24;6.60;;;4.60;;
4748;SDS011;2388;53.582;9.962;2023-09-08T00:35:50;4.60;;;4.23;;
4748;SDS011;2388;53.582;9.962;2023-09-08T00:38:16;6.03;;;4.90;;
4748;SDS011;2388;53.582;9.962;2023-09-08T00:40:42;5.27;;;4.17;;
4748;SDS011;2388;53.582;9.962;2023-09-08T00:43:07;4.80;;;4.40;;
4748;SDS011;2388;53.582;9.962;2023-09-08T00:45:34;5.27;;;4.57;;
4748;SDS011;2388;53.582;9.962;2023-09-08T00:48:04;4.87;;;4.47;;
4748;SDS011;2388;53.582;9.962;2023-09-08T00:50:30;4.53;;;4.13;;
4748;SDS011;2388;53.582;9.962;2023-09-08T00:52:55;9.00;;;4.90;;
4748;SDS011;2388;53.582;9.962;2023-09-08T00:55:21;4.67;;;4.37;;
4748;SDS011;2388;53.582;9.962;2023-09-08T00:57:47;4.67;;;4.27;;
4748;SDS011;2388;53.582;9.962;2023-09-08T01:00:12;5.30;;;4.40;;
4748;SDS011;2388;53.582;9.962;2023-09-08T01:02:39;5.00;;;4.60;;
4748;SDS011;2388;53.582;9.962;2023-09-08T01:05:04;7.60;;;4.73;;
4748;SDS011;2388;53.582;9.962;2023-09-08T01:07:30;9.10;;;4.20;;
4748;SDS011;2388;53.582;9.962;2023-09-08T01:09:57;4.23;;;3.93;;
4748;SDS011;2388;53.582;9.962;2023-09-08T01:12:27;4.97;;;4.57;;
4748;SDS011;2388;53.582;9.962;2023-09-08T01:14:52;5.27;;;4.80;;
4748;SDS011;2388;53.582;9.962;2023-09-08T01:17:18;5.73;;;5.20;;
4748;SDS011;2388;53.582;9.962;2023-09-08T01:19:43;4.70;;;4.37;;
4748;SDS011;2388;53.582;9.962;2023-09-08T01:27:18;4.93;;;4.53;;
4748;SDS011;2388;53.582;9.962;2023-09-08T01:29:46;5.10;;;4.70;;
4748;SDS011;2388;53.582;9.962;2023-09-08T01:32:13;4.80;;;4.50;;
4748;SDS011;2388;53.582;9.962;2023-09-08T01:34:39;6.20;;;4.60;;
4748;SDS011;2388;53.582;9.962;2023-09-08T01:37:06;5.30;;;4.80;;
4748;SDS011;2388;53.582;9.962;2023-09-08T01:39:32;4.97;;;4.57;;
4748;SDS011;2388;53.582;9.962;2023-09-08T01:41:57;4.80;;;4.40;;
4748;SDS011;2388;53.582;9.962;2023-09-08T01:44:23;5.27;;;4.77;;
4748;SDS011;2388;53.582;9.962;2023-09-08T01:46:48;8.90;;;4.80;;
4748;SDS011;2388;53.582;9.962;2023-09-08T01:49:16;4.93;;;4.53;;
4748;SDS011;2388;53.582;9.962;2023-09-08T01:51:41;5.07;;;4.67;;
4748;SDS011;2388;53.582;9.962;2023-09-08T01:54:07;4.47;;;4.10;;
4748;SDS011;2388;53.582;9.962;2023-09-08T01:56:32;4.70;;;4.30;;
4748;SDS011;2388;53.582;9.962;2023-09-08T01:58:58;5.17;;;4.80;;
4748;SDS011;2388;53.582;9.962;2023-09-08T02:01:24;4.37;;;4.00;;
4748;SDS011;2388;53.582;9.962;2023-09-08T02:03:50;5.00;;;4.60;;
4748;SDS011;2388;53.582;9.962;2023-09-08T02:06:15;5.07;;;4.57;;
4748;SDS011;2388;53.582;9.962;2023-09-08T02:08:41;4.97;;;4.53;;
4748;SDS011;2388;53.582;9.962;2023-09-08T02:11:06;5.53;;;4.90;;
4748;SDS011;2388;53.582;9.962;2023-09-08T02:13:32;4.63;;;4.33;;
4748;SDS011;2388;53.582;9.962;2023-09-08T02:15:57;5.20;;;4.80;;
4748;SDS011;2388;53.582;9.962;2023-09-08T02:18:23;5.07;;;4.63;;
4748;SDS011;2388;53.582;9.962;2023-09-08T02:20:50;7.13;;;5.47;;
4748;SDS011;2388;53.582;9.962;2023-09-08T02:23:16;4.70;;;4.30;;
4748;SDS011;2388;53.582;9.962;2023-09-08T02:25:41;5.20;;;4.70;;
4748;SDS011;2388;53.582;9.962;2023-09-08T02:28:07;5.33;;;4.83;;
4748;SDS011;2388;53.582;9.962;2023-09-08T02:30:32;4.93;;;4.43;;
4748;SDS011;2388;53.582;9.962;2023-09-08T02:32:57;5.63;;;5.17;;
4748;SDS011;2388;53.582;9.962;2023-09-08T02:35:23;8.13;;;5.30;;
4748;SDS011;2388;53.582;9.962;2023-09-08T02:37:49;5.20;;;4.33;;
4748;SDS011;2388;53.582;9.962;2023-09-08T02:40:15;6.30;;;5.67;;
4748;SDS011;2388;53.582;9.962;2023-09-08T02:42:40;5.83;;;4.83;;
4748;SDS011;2388;53.582;9.962;2023-09-08T02:45:06;5.40;;;5.00;;
4748;SDS011;2388;53.582;9.962;2023-09-08T02:47:32;5.97;;;5.23;;
4748;SDS011;2388;53.582;9.962;2023-09-08T02:49:57;5.10;;;4.73;;
4748;SDS011;2388;53.582;9.962;2023-09-08T02:52:23;6.60;;;5.93;;
4748;SDS011;2388;53.582;9.962;2023-09-08T02:54:48;6.20;;;5.60;;
4748;SDS011;2388;53.582;9.962;2023-09-08T02:57:14;5.30;;;4.90;;
4748;SDS011;2388;53.582;9.962;2023-09-08T02:59:39;5.90;;;5.40;;
4748;SDS011;2388;53.582;9.962;2023-09-08T03:02:04;6.10;;;5.10;;
4748;SDS011;2388;53.582;9.962;2023-09-08T03:04:30;5.77;;;5.17;;
4748;SDS011;2388;53.582;9.962;2023-09-08T03:06:55;5.17;;;4.80;;
4748;SDS011;2388;53.582;9.962;2023-09-08T03:09:21;5.70;;;5.23;;
4748;SDS011;2388;53.582;9.962;2023-09-08T03:11:46;5.23;;;4.83;;
4748;SDS011;2388;53.582;9.962;2023-09-08T03:14:12;5.60;;;5.20;;
4748;SDS011;2388;53.582;9.962;2023-09-08T03:16:37;6.27;;;5.70;;
4748;SDS011;2388;53.582;9.962;2023-09-08T03:19:03;5.60;;;5.10;;
4748;SDS011;2388;53.582;9.962;2023-09-08T03:21:28;5.97;;;5.33;;
4748;SDS011;2388;53.582;9.962;2023-09-08T03:23:54;6.47;;;5.90;;
4748;SDS011;2388;53.582;9.962;2023-09-08T03:26:20;6.07;;;5.57;;
4748;SDS011;2388;53.582;9.962;2023-09-08T03:28:45;5.57;;;5.07;;
4748;SDS011;2388;53.582;9.962;2023-09-08T03:31:11;5.10;;;4.70;;
4748;SDS011;2388;53.582;9.962;2023-09-08T03:33:36;6.17;;;5.57;;
4748;SDS011;2388;53.582;9.962;2023-09-08T03:36:02;5.70;;;5.20;;
4748;SDS011;2388;53.582;9.962;2023-09-08T03:38:27;5.90;;;5.40;;
4748;SDS011;2388;53.582;9.962;2023-09-08T03:40:53;7.67;;;6.37;;
4748;SDS011;2388;53.582;9.962;2023-09-08T03:43:19;7.20;;;6.50;;
4748;SDS011;2388;53.582;9.962;2023-09-08T03:45:44;6.17;;;5.67;;
4748;SDS011;2388;53.582;9.962;2023-09-08T03:48:10;6.63;;;5.27;;
4748;SDS011;2388;53.582;9.962;2023-09-08T03:50:35;5.93;;;5.40;;
4748;SDS011;2388;53.582;9.962;2023-09-08T03:53:01;5.93;;;5.43;;
4748;SDS011;2388;53.582;9.962;2023-09-08T03:55:26;6.73;;;5.33;;
4748;SDS011;2388;53.582;9.962;2023-09-08T03:57:52;5.73;;;5.23;;
4748;SDS011;2388;53.582;9.962;2023-09-08T04:00:17;9.37;;;6.20;;
4748;SDS011;2388;53.582;9.962;2023-09-08T04:02:47;6.33;;;5.73;;
4748;SDS011;2388;53.582;9.962;2023-09-08T04:05:14;6.10;;;5.50;;
4748;SDS011;2388;53.582;9.962;2023-09-08T04:07:40;6.60;;;6.03;;
4748;SDS011;2388;53.582;9.962;2023-09-08T04:10:06;5.80;;;5.30;;
4748;SDS011;2388;53.582;9.962;2023-09-08T04:12:32;6.83;;;6.10;;
4748;SDS011;2388;53.582;9.962;2023-09-08T04:14:57;6.77;;;6.07;;
4748;SDS011;2388;53.582;9.962;2023-09-08T04:17:23;8.07;;;5.83;;
4748;SDS011;2388;53.582;9.962;2023-09-08T04:19:48;7.33;;;6.63;;
4748;SDS011;2388;53.582;9.962;2023-09-08T04:22:14;6.67;;;6.07;;
4748;SDS011;2388;53.582;9.962;2023-09-08T04:24:39;9.70;;;5.70;;
4748;SDS011;2388;53.582;9.962;2023-09-08T04:27:05;6.60;;;5.80;;
4748;SDS011;2388;53.582;9.962;2023-09-08T04:29:31;5.80;;;5.30;;
4748;SDS011;2388;53.582;9.962;2023-09-08T04:31:57;6.10;;;5.60;;
4748;SDS011;2388;53.582;9.962;2023-09-08T04:34:22;7.20;;;6.00;;
4748;SDS011;2388;53.582;9.962;2023-09-08T04:36:48;5.50;;;5.00;;
4748;SDS011;2388;53.582;9.962;2023-09-08T04:39:13;11.37;;;6.00;;
4748;SDS011;2388;53.582;9.962;2023-09-08T04:41:40;8.90;;;6.00;;
4748;SDS011;2388;53.582;9.962;2023-09-08T04:44:06;6.87;;;6.27;;
4748;SDS011;2388;53.582;9.962;2023-09-08T04:46:31;8.17;;;6.20;;
4748;SDS011;2388;53.582;9.962;2023-09-08T04:48:57;6.47;;;5.87;;
4748;SDS011;2388;53.582;9.962;2023-09-08T04:51:23;7.47;;;6.40;;
4748;SDS011;2388;53.582;9.962;2023-09-08T04:53:49;6.80;;;6.03;;
4748;SDS011;2388;53.582;9.962;2023-09-08T04:56:14;6.53;;;5.93;;
4748;SDS011;2388;53.582;9.962;2023-09-08T04:58:40;8.00;;;6.93;;
4748;SDS011;2388;53.582;9.962;2023-09-08T05:01:06;6.37;;;5.87;;
4748;SDS011;2388;53.582;9.962;2023-09-08T05:03:31;6.57;;;5.97;;
4748;SDS011;2388;53.582;9.962;2023-09-08T05:05:56;8.07;;;6.20;;
4748;SDS011;2388;53.582;9.962;2023-09-08T05:08:22;6.37;;;5.53;;
4748;SDS011;2388;53.582;9.962;2023-09-08T05:10:47;7.20;;;6.40;;
4748;SDS011;2388;53.582;9.962;2023-09-08T05:13:13;9.80;;;6.87;;
4748;SDS011;2388;53.582;9.962;2023-09-08T05:15:38;7.20;;;6.50;;
4748;SDS011;2388;53.582;9.962;2023-09-08T05:18:07;6.97;;;6.30;;
4748;SDS011;2388;53.582;9.962;2023-09-08T05:20:32;7.17;;;6.40;;
4748;SDS011;2388;53.582;9.962;2023-09-08T05:22:58;8.20;;;6.73;;
4748;SDS011;2388;53.582;9.962;2023-09-08T05:25:23;7.87;;;6.00;;
4748;SDS011;2388;53.582;9.962;2023-09-08T05:27:49;7.10;;;6.37;;
4748;SDS011;2388;53.582;9.962;2023-09-08T05:30:14;7.80;;;7.10;;
4748;SDS011;2388;53.582;9.962;2023-09-08T05:32:40;7.77;;;7.07;;
4748;SDS011;2388;53.582;9.962;2023-09-08T05:35:05;8.53;;;7.00;;
4748;SDS011;2388;53.582;9.962;2023-09-08T05:37:31;7.70;;;6.50;;
4748;SDS011;2388;53.582;9.962;2023-09-08T05:39:57;6.60;;;6.10;;
4748;SDS011;2388;53.582;9.962;2023-09-08T05:42:22;7.50;;;6.37;;
4748;SDS011;2388;53.582;9.962;2023-09-08T05:44:47;7.47;;;6.80;;
4748;SDS011;2388;53.582;9.962;2023-09-08T05:47:13;7.60;;;6.90;;
4748;SDS011;2388;53.582;9.962;2023-09-08T05:49:39;9.20;;;6.47;;
4748;SDS011;2388;53.582;9.962;2023-09-08T05:52:04;7.77;;;6.97;;
4748;SDS011;2388;53.582;9.962;2023-09-08T05:54:30;7.83;;;6.30;;
4748;SDS011;2388;53.582;9.962;2023-09-08T05:56:56;19.63;;;15.33;;
4748;SDS011;2388;53.582;9.962;2023-09-08T05:59:21;14.13;;;12.20;;
4748;SDS011;2388;53.582;9.962;2023-09-08T06:01:47;19.17;;;16.53;;
4748;SDS011;2388;53.582;9.962;2023-09-08T06:04:12;10.80;;;9.70;;
4748;SDS011;2388;53.582;9.962;2023-09-08T06:06:38;17.67;;;14.33;;
4748;SDS011;2388;53.582;9.962;2023-09-08T06:09:04;10.17;;;8.53;;
4748;SDS011;2388;53.582;9.962;2023-09-08T06:11:31;11.93;;;9.37;;
4748;SDS011;2388;53.582;9.962;2023-09-08T06:13:56;14.30;;;9.40;;
4748;SDS011;2388;53.582;9.962;2023-09-08T06:16:24;10.00;;;8.93;;
4748;SDS011;2388;53.582;9.962;2023-09-08T06:18:50;11.87;;;8.50;;
4748;SDS011;2388;53.582;9.962;2023-09-08T06:21:15;8.00;;;6.90;;
4748;SDS011;2388;53.582;9.962;2023-09-08T06:23:41;8.63;;;7.70;;
4748;SDS011;2388;53.582;9.962;2023-09-08T06:26:06;9.27;;;7.60;;
4748;SDS011;2388;53.582;9.962;2023-09-08T06:28:32;8.47;;;7.60;;
4748;SDS011;2388;53.582;9.962;2023-09-08T06:30:58;9.00;;;6.80;;
4748;SDS011;2388;53.582;9.962;2023-09-08T06:33:23;9.23;;;7.20;;
4748;SDS011;2388;53.582;9.962;2023-09-08T06:35:49;6.90;;;6.30;;
4748;SDS011;2388;53.582;9.962;2023-09-08T06:38:15;8.10;;;7.30;;
4748;SDS011;2388;53.582;9.962;2023-09-08T06:40:40;8.40;;;7.40;;
4748;SDS011;2388;53.582;9.962;2023-09-08T06:43:06;7.43;;;6.73;;
4748;SDS011;2388;53.582;9.962;2023-09-08T06:45:31;8.60;;;7.30;;
4748;SDS011;2388;53.582;9.962;2023-09-08T06:47:56;9.30;;;7.63;;
4748;SDS011;2388;53.582;9.962;2023-09-08T06:50:22;15.03;;;7.30;;
4748;SDS011;2388;53.582;9.962;2023-09-08T06:52:49;11.70;;;8.77;;
4748;SDS011;2388;53.582;9.962;2023-09-08T06:55:15;8.70;;;7.90;;
4748;SDS011;2388;53.582;9.962;2023-09-08T06:57:41;12.73;;;8.00;;
4748;SDS011;2388;53.582;9.962;2023-09-08T07:00:07;9.67;;;8.03;;
4748;SDS011;2388;53.582;9.962;2023-09-08T07:02:33;7.10;;;6.47;;
4748;SDS011;2388;53.582;9.962;2023-09-08T07:04:59;8.27;;;6.93;;
4748;SDS011;2388;53.582;9.962;2023-09-08T07:07:25;9.67;;;7.63;;
4748;SDS011;2388;53.582;9.962;2023-09-08T07:09:51;15.93;;;6.60;;
4748;SDS011;2388;53.582;9.962;2023-09-08T07:12:16;8.70;;;6.47;;
4748;SDS011;2388;53.582;9.962;2023-09-08T07:14:42;8.80;;;7.60;;
4748;SDS011;2388;53.582;9.962;2023-09-08T07:17:07;7.50;;;6.70;;
4748;SDS011;2388;53.582;9.962;2023-09-08T07:19:33;12.23;;;7.33;;
4748;SDS011;2388;53.582;9.962;2023-09-08T07:21:58;9.73;;;6.93;;
4748;SDS011;2388;53.582;9.962;2023-09-08T07:24:24;7.07;;;6.40;;
4748;SDS011;2388;53.582;9.962;2023-09-08T07:26:49;9.80;;;7.03;;
4748;SDS011;2388;53.582;9.962;2023-09-08T07:29:15;7.90;;;6.90;;
4748;SDS011;2388;53.582;9.962;2023-09-08T07:31:41;10.43;;;7.23;;
4748;SDS011;2388;53.582;9.962;2023-09-08T07:34:06;12.83;;;7.67;;
4748;SDS011;2388;53.582;9.962;2023-09-08T07:36:32;11.40;;;6.70;;
4748;SDS011;2388;53.582;9.962;2023-09-08T07:38:57;10.10;;;7.90;;
4748;SDS011;2388;53.582;9.962;2023-09-08T07:41:23;8.70;;;7.60;;
4748;SDS011;2388;53.582;9.962;2023-09-08T07:43:48;10.30;;;7.63;;
4748;SDS011;2388;53.582;9.962;2023-09-08T07:46:15;17.67;;;8.03;;
4748;SDS011;2388;53.582;9.962;2023-09-08T07:48:41;7.37;;;6.67;;
4748;SDS011;2388;53.582;9.962;2023-09-08T07:51:06;10.57;;;7.83;;
4748;SDS011;2388;53.582;9.962;2023-09-08T07:53:32;7.97;;;7.17;;
4748;SDS011;2388;53.582;9.962;2023-09-08T07:55:57;11.53;;;6.30;;
4748;SDS011;2388;53.582;9.962;2023-09-08T07:58:23;9.47;;;6.77;;
4748;SDS011;2388;53.582;9.962;2023-09-08T08:00:49;12.17;;;7.17;;
4748;SDS011;2388;53.582;9.962;2023-09-08T08:03:14;6.80;;;6.20;;
4748;SDS011;2388;53.582;9.962;2023-09-08T08:05:40;8.70;;;6.97;;
4748;SDS011;2388;53.582;9.962;2023-09-08T08:08:05;7.60;;;6.00;;
4748;SDS011;2388;53.582;9.962;2023-09-08T08:10:31;11.73;;;6.20;;
4748;SDS011;2388;53.582;9.962;2023-09-08T08:12:57;6.87;;;6.10;;
4748;SDS011;2388;53.582;9.962;2023-09-08T08:15:33;15.47;;;9.37;;
4748;SDS011;2388;53.582;9.962;2023-09-08T08:18:04;12.23;;;7.13;;
4748;SDS011;2388;53.582;9.962;2023-09-08T08:20:30;12.43;;;6.00;;
4748;SDS011;2388;53.582;9.962;2023-09-08T08:22:59;13.73;;;6.60;;
4748;SDS011;2388;53.582;9.962;2023-09-08T08:25:28;7.47;;;6.20;;
4748;SDS011;2388;53.582;9.962;2023-09-08T08:27:53;6.93;;;6.30;;
4748;SDS011;2388;53.582;9.962;2023-09-08T08:30:19;13.10;;;9.37;;
4748;SDS011;2388;53.582;9.962;2023-09-08T08:32:45;10.60;;;6.63;;
4748;SDS011;2388;53.582;9.962;2023-09-08T08:35:10;9.13;;;7.50;;
4748;SDS011;2388;53.582;9.962;2023-09-08T08:37:36;12.53;;;6.93;;
4748;SDS011;2388;53.582;9.962;2023-09-08T08:40:04;13.63;;;7.43;;
4748;SDS011;2388;53.582;9.962;2023-09-08T08:42:32;11.27;;;7.40;;
4748;SDS011;2388;53.582;9.962;2023-09-08T08:44:58;11.87;;;8.33;;
4748;SDS011;2388;53.582;9.962;2023-09-08T08:47:25;31.00;;;19.80;;
4748;SDS011;2388;53.582;9.962;2023-09-08T08:49:52;19.43;;;13.00;;
4748;SDS011;2388;53.582;9.962;2023-09-08T08:52:20;10.20;;;6.90;;
4748;SDS011;2388;53.582;9.962;2023-09-08T08:54:46;8.10;;;6.73;;
4748;SDS011;2388;53.582;9.962;2023-09-08T08:57:11;9.20;;;6.67;;
4748;SDS011;2388;53.582;9.962;2023-09-08T08:59:38;9.13;;;6.97;;
4748;SDS011;2388;53.582;9.962;2023-09-08T09:02:06;7.43;;;6.70;;
4748;SDS011;2388;53.582;9.962;2023-09-08T09:04:36;8.30;;;6.50;;
4748;SDS011;2388;53.582;9.962;2023-09-08T09:07:02;10.23;;;9.20;;
4748;SDS011;2388;53.582;9.962;2023-09-08T09:09:29;13.10;;;9.77;;
4748;SDS011;2388;53.582;9.962;2023-09-08T09:11:54;7.20;;;6.20;;
4748;SDS011;2388;53.582;9.962;2023-09-08T09:14:20;9.80;;;8.80;;
4748;SDS011;2388;53.582;9.962;2023-09-08T09:16:47;9.30;;;6.90;;
4748;SDS011;2388;53.582;9.962;2023-09-08T09:19:20;10.60;;;7.63;;
4748;SDS011;2388;53.582;9.962;2023-09-08T09:21:52;8.40;;;5.70;;
4748;SDS011;2388;53.582;9.962;2023-09-08T09:24:40;6.37;;;5.87;;
4748;SDS011;2388;53.582;9.962;2023-09-08T09:27:08;7.63;;;6.50;;
4748;SDS011;2388;53.582;9.962;2023-09-08T09:29:35;7.70;;;6.90;;
4748;SDS011;2388;53.582;9.962;2023-09-08T09:32:12;6.73;;;6.13;;
4748;SDS011;2388;53.582;9.962;2023-09-08T09:34:47;8.33;;;5.83;;
4748;SDS011;2388;53.582;9.962;2023-09-08T09:37:14;8.43;;;7.00;;
4748;SDS011;2388;53.582;9.962;2023-09-08T09:39:40;6.73;;;6.20;;
4748;SDS011;2388;53.582;9.962;2023-09-08T09:42:06;10.40;;;6.03;;
4748;SDS011;2388;53.582;9.962;2023-09-08T09:44:31;9.03;;;5.77;;
4748;SDS011;2388;53.582;9.962;2023-09-08T09:46:57;9.57;;;6.37;;
4748;SDS011;2388;53.582;9.962;2023-09-08T09:49:25;11.47;;;6.37;;
4748;SDS011;2388;53.582;9.962;2023-09-08T09:51:56;8.20;;;7.13;;
4748;SDS011;2388;53.582;9.962;2023-09-08T09:54:23;7.63;;;6.87;;
4748;SDS011;2388;53.582;9.962;2023-09-08T09:56:48;7.27;;;6.67;;
4748;SDS011;2388;53.582;9.962;2023-09-08T09:59:16;15.00;;;6.10;;
4748;SDS011;2388;53.582;9.962;2023-09-08T10:01:42;8.73;;;7.10;;
4748;SDS011;2388;53.582;9.962;2023-09-08T10:04:08;8.17;;;5.77;;
4748;SDS011;2388;53.582;9.962;2023-09-08T10:06:35;7.33;;;5.63;;
4748;SDS011;2388;53.582;9.962;2023-09-08T10:09:03;10.90;;;6.60;;
4748;SDS011;2388;53.582;9.962;2023-09-08T10:11:44;9.63;;;6.07;;
4748;SDS011;2388;53.582;9.962;2023-09-08T10:14:13;8.47;;;7.53;;
4748;SDS011;2388;53.582;9.962;2023-09-08T10:16:40;6.73;;;6.13;;
4748;SDS011;2388;53.582;9.962;2023-09-08T10:19:09;9.40;;;6.07;;
4748;SDS011;2388;53.582;9.962;2023-09-08T10:21:47;6.63;;;6.00;;
4748;SDS011;2388;53.582;9.962;2023-09-08T10:24:18;9.17;;;8.33;;
4748;SDS011;2388;53.582;9.962;2023-09-08T10:27:08;7.03;;;6.13;;
4748;SDS011;2388;53.582;9.962;2023-09-08T10:29:35;6.83;;;6.13;;
4748;SDS011;2388;53.582;9.962;2023-09-08T10:32:01;8.97;;;6.00;;
4748;SDS011;2388;53.582;9.962;2023-09-08T10:34:27;6.90;;;6.30;;
4748;SDS011;2388;53.582;9.962;2023-09-08T10:36:54;7.43;;;6.23;;
4748;SDS011;2388;53.582;9.962;2023-09-08T10:39:33;7.03;;;6.43;;
4748;SDS011;2388;53.582;9.962;2023-09-08T10:44:41;11.90;;;6.07;;
4748;SDS011;2388;53.582;9.962;2023-09-08T10:47:08;6.40;;;5.73;;
4748;SDS011;2388;53.582;9.962;2023-09-08T10:49:35;5.80;;;4.63;;
4748;SDS011;2388;53.582;9.962;2023-09-08T10:52:08;12.83;;;6.00;;
4748;SDS011;2388;53.582;9.962;2023-09-08T10:54:44;9.77;;;6.77;;
4748;SDS011;2388;53.582;9.962;2023-09-08T10:57:13;11.47;;;6.10;;
4748;SDS011;2388;53.582;9.962;2023-09-08T10:59:40;7.40;;;5.93;;
4748;SDS011;2388;53.582;9.962;2023-09-08T11:04:59;6.77;;;6.07;;
4748;SDS011;2388;53.582;9.962;2023-09-08T11:07:25;6.43;;;5.80;;
4748;SDS011;2388;53.582;9.962;2023-09-08T11:09:50;6.20;;;5.27;;
4748;SDS011;2388;53.582;9.962;2023-09-08T11:12:16;14.83;;;5.07;;
4748;SDS011;2388;53.582;9.962;2023-09-08T11:14:42;6.00;;;5.23;;
4748;SDS011;2388;53.582;9.962;2023-09-08T11:17:08;5.90;;;5.40;;
4748;SDS011;2388;53.582;9.962;2023-09-08T11:19:45;5.40;;;5.00;;
4748;SDS011;2388;53.582;9.962;2023-09-08T11:22:12;5.63;;;5.10;;
4748;SDS011;2388;53.582;9.962;2023-09-08T11:24:38;5.83;;;5.27;;
4748;SDS011;2388;53.582;9.962;2023-09-08T11:27:04;6.80;;;4.87;;
4748;SDS011;2388;53.582;9.962;2023-09-08T11:29:30;6.27;;;5.73;;
4748;SDS011;2388;53.582;9.962;2023-09-08T11:31:56;6.53;;;5.80;;
4748;SDS011;2388;53.582;9.962;2023-09-08T11:34:21;8.80;;;7.87;;
4748;SDS011;2388;53.582;9.962;2023-09-08T11:36:47;11.30;;;8.07;;
4748;SDS011;2388;53.582;9.962;2023-09-08T11:39:13;7.67;;;6.97;;
4748;SDS011;2388;53.582;9.962;2023-09-08T11:41:39;7.03;;;6.03;;
4748;SDS011;2388;53.582;9.962;2023-09-08T11:44:05;9.40;;;4.83;;
4748;SDS011;2388;53.582;9.962;2023-09-08T11:46:30;6.83;;;5.63;;
4748;SDS011;2388;53.582;9.962;2023-09-08T11:48:56;6.83;;;5.47;;
4748;SDS011;2388;53.582;9.962;2023-09-08T11:51:25;6.77;;;5.90;;
4748;SDS011;2388;53.582;9.962;2023-09-08T11:53:51;5.23;;;4.83;;
4748;SDS011;2388;53.582;9.962;2023-09-08T11:56:17;4.80;;;4.50;;
4748;SDS011;2388;53.582;9.962;2023-09-08T11:58:43;5.10;;;4.50;;
4748;SDS011;2388;53.582;9.962;2023-09-08T12:01:09;9.80;;;5.70;;
4748;SDS011;2388;53.582;9.962;2023-09-08T12:03:35;6.47;;;5.40;;
4748;SDS011;2388;53.582;9.962;2023-09-08T12:06:16;9.53;;;5.23;;
4748;SDS011;2388;53.582;9.962;2023-09-08T12:08:42;5.43;;;4.80;;
4748;SDS011;2388;53.582;9.962;2023-09-08T12:11:09;8.73;;;5.30;;
4748;SDS011;2388;53.582;9.962;2023-09-08T12:13:34;7.10;;;5.50;;
4748;SDS011;2388;53.582;9.962;2023-09-08T12:16:00;5.57;;;5.10;;
4748;SDS011;2388;53.582;9.962;2023-09-08T12:18:38;14.80;;;5.47;;
4748;SDS011;2388;53.582;9.962;2023-09-08T12:21:04;6.40;;;5.17;;
4748;SDS011;2388;53.582;9.962;2023-09-08T12:23:30;5.57;;;4.77;;
4748;SDS011;2388;53.582;9.962;2023-09-08T12:25:56;5.27;;;4.77;;
4748;SDS011;2388;53.582;9.962;2023-09-08T12:28:22;5.77;;;5.17;;
4748;SDS011;2388;53.582;9.962;2023-09-08T12:30:55;5.93;;;5.37;;
4748;SDS011;2388;53.582;9.962;2023-09-08T12:33:20;5.40;;;4.90;;
4748;SDS011;2388;53.582;9.962;2023-09-08T12:35:47;6.90;;;4.70;;
4748;SDS011;2388;53.582;9.962;2023-09-08T12:38:15;4.70;;;4.30;;
4748;SDS011;2388;53.582;9.962;2023-09-08T12:40:41;4.37;;;4.00;;
4748;SDS011;2388;53.582;9.962;2023-09-08T12:43:07;4.60;;;4.20;;
4748;SDS011;2388;53.582;9.962;2023-09-08T12:45:32;5.03;;;4.30;;
4748;SDS011;2388;53.582;9.962;2023-09-08T12:47:58;7.83;;;3.90;;
4748;SDS011;2388;53.582;9.962;2023-09-08T12:50:27;4.13;;;3.70;;
4748;SDS011;2388;53.582;9.962;2023-09-08T12:52:53;3.87;;;3.57;;
4748;SDS011;2388;53.582;9.962;2023-09-08T12:55:18;5.33;;;4.17;;
4748;SDS011;2388;53.582;9.962;2023-09-08T12:57:44;4.20;;;3.90;;
4748;SDS011;2388;53.582;9.962;2023-09-08T13:00:10;9.00;;;4.07;;
4748;SDS011;2388;53.582;9.962;2023-09-08T13:02:36;8.07;;;4.20;;
4748;SDS011;2388;53.582;9.962;2023-09-08T13:05:02;5.63;;;3.70;;
4748;SDS011;2388;53.582;9.962;2023-09-08T13:07:28;4.93;;;4.50;;
4748;SDS011;2388;53.582;9.962;2023-09-08T13:09:53;4.87;;;4.40;;
4748;SDS011;2388;53.582;9.962;2023-09-08T13:12:19;7.60;;;3.70;;
4748;SDS011;2388;53.582;9.962;2023-09-08T13:14:44;4.57;;;4.23;;
4748;SDS011;2388;53.582;9.962;2023-09-08T13:17:10;5.43;;;4.10;;
4748;SDS011;2388;53.582;9.962;2023-09-08T13:19:36;5.20;;;4.07;;
4748;SDS011;2388;53.582;9.962;2023-09-08T13:22:03;5.20;;;3.47;;
4748;SDS011;2388;53.582;9.962;2023-09-08T13:24:29;6.10;;;4.60;;
4748;SDS011;2388;53.582;9.962;2023-09-08T13:26:55;10.13;;;3.43;;
4748;SDS011;2388;53.582;9.962;2023-09-08T13:29:20;4.30;;;4.00;;
4748;SDS011;2388;53.582;9.962;2023-09-08T13:31:46;6.03;;;3.67;;
4748;SDS011;2388;53.582;9.962;2023-09-08T13:34:11;3.93;;;3.70;;
4748;SDS011;2388;53.582;9.962;2023-09-08T13:36:37;5.00;;;3.87;;
4748;SDS011;2388;53.582;9.962;2023-09-08T13:39:02;6.83;;;3.90;;
4748;SDS011;2388;53.582;9.962;2023-09-08T13:41:47;4.20;;;3.97;;
4748;SDS011;2388;53.582;9.962;2023-09-08T13:44:13;4.33;;;3.40;;
4748;SDS011;2388;53.582;9.962;2023-09-08T13:46:38;5.53;;;3.77;;
4748;SDS011;2388;53.582;9.962;2023-09-08T13:49:04;9.90;;;4.10;;
4748;SDS011;2388;53.582;9.962;2023-09-08T13:51:29;4.13;;;3.93;;
4748;SDS011;2388;53.582;9.962;2023-09-08T13:53:56;4.27;;;3.87;;
4748;SDS011;2388;53.582;9.962;2023-09-08T13:56:21;4.37;;;4.07;;
4748;SDS011;2388;53.582;9.962;2023-09-08T13:58:47;4.10;;;3.83;;
4748;SDS011;2388;53.582;9.962;2023-09-08T14:01:12;4.97;;;4.00;;
4748;SDS011;2388;53.582;9.962;2023-09-08T14:03:38;4.57;;;4.07;;
4748;SDS011;2388;53.582;9.962;2023-09-08T14:06:03;3.30;;;3.10;;
4748;SDS011;2388;53.582;9.962;2023-09-08T14:08:29;4.57;;;4.17;;
4748;SDS011;2388;53.582;9.962;2023-09-08T14:10:54;9.07;;;5.00;;
4748;SDS011;2388;53.582;9.962;2023-09-08T14:13:20;4.90;;;4.50;;
4748;SDS011;2388;53.582;9.962;2023-09-08T14:15:45;5.27;;;4.17;;
4748;SDS011;2388;53.582;9.962;2023-09-08T14:18:11;4.33;;;4.03;;
4748;SDS011;2388;53.582;9.962;2023-09-08T14:20:38;5.43;;;4.20;;
4748;SDS011;2388;53.582;9.962;2023-09-08T14:23:04;6.37;;;5.00;;
4748;SDS011;2388;53.582;9.962;2023-09-08T14:25:32;5.27;;;4.77;;
4748;SDS011;2388;53.582;9.962;2023-09-08T14:27:58;4.57;;;4.07;;
4748;SDS011;2388;53.582;9.962;2023-09-08T14:30:23;4.63;;;4.07;;
4748;SDS011;2388;53.582;9.962;2023-09-08T14:32:49;4.40;;;4.10;;
4748;SDS011;2388;53.582;9.962;2023-09-08T14:35:15;4.77;;;4.27;;
4748;SDS011;2388;53.582;9.962;2023-09-08T14:37:40;4.43;;;4.07;;
4748;SDS011;2388;53.582;9.962;2023-09-08T14:40:06;4.73;;;4.33;;
4748;SDS011;2388;53.582;9.962;2023-09-08T14:42:31;4.67;;;4.27;;
4748;SDS011;2388;53.582;9.962;2023-09-08T14:44:57;5.10;;;4.70;;
4748;SDS011;2388;53.582;9.962;2023-09-08T14:47:23;5.57;;;4.73;;
4748;SDS011;2388;53.582;9.962;2023-09-08T14:49:48;4.17;;;3.83;;
4748;SDS011;2388;53.582;9.962;2023-09-08T14:52:14;4.40;;;4.10;;
4748;SDS011;2388;53.582;9.962;2023-09-08T14:54:40;5.20;;;4.40;;
4748;SDS011;2388;53.582;9.962;2023-09-08T14:57:06;6.63;;;4.03;;
4748;SDS011;2388;53.582;9.962;2023-09-08T14:59:31;4.90;;;4.50;;
4748;SDS011;2388;53.582;9.962;2023-09-08T15:01:57;5.13;;;4.70;;
4748;SDS011;2388;53.582;9.962;2023-09-08T15:04:22;5.67;;;5.07;;
4748;SDS011;2388;53.582;9.962;2023-09-08T15:06:48;5.40;;;4.97;;
4748;SDS011;2388;53.582;9.962;2023-09-08T15:09:14;5.10;;;4.60;;
4748;SDS011;2388;53.582;9.962;2023-09-08T15:11:39;9.23;;;4.20;;
4748;SDS011;2388;53.582;9.962;2023-09-08T15:14:05;4.37;;;4.07;;
4748;SDS011;2388;53.582;9.962;2023-09-08T15:16:30;4.17;;;3.97;;
4748;SDS011;2388;53.582;9.962;2023-09-08T15:18:56;4.20;;;3.87;;